sensor_id;sensor_type;location;lat;lon;timestamp;temperature;humidity
2999;DHT22;1509;51.964;7.628;2023-05-03T00:01:34;8.00;99.90
2999;DHT22;1509;51.964;7.628;2023-05-03T00:04:01;7.90;99.90
2999;DHT22;1509;51.964;7.628;2023-05-03T00:06:28;7.90;99.90
2999;DHT22;1509;51.964;7.628;2023-05-03T00:08:53;7.90;99.90
2999;DHT22;1509;51.964;7.628;2023-05-03T00:11:19;7.90;99.90
2999;DHT22;1509;51.964;7.628;2023-05-03T00:13:45;7.80;99.90
2999;DHT22;1509;51.964;7.628;2023-05-03T00:16:11;7.70;99.90
2999;DHT22;1509;51.964;7.628;2023-05-03T00:18:37;7.70;99.90
2999;DHT22;1509;51.964;7.628;2023-05-03T00:21:02;7.70;99.90
2999;DHT22;1509;51.964;7.628;2023-05-03T00:23:28;7.70;99.90
2999;DHT22;1509;51.964;7.628;2023-05-03T00:25:57;7.60;99.90
2999;DHT22;1509;51.964;7.628;2023-05-03T00:28:24;7.60;99.90
2999;DHT22;1509;51.964;7.628;2023-05-03T00:30:51;7.60;99.90
2999;DHT22;1509;51.964;7.628;2023-05-03T00:33:18;7.60;99.90
2999;DHT22;1509;51.964;7.628;2023-05-03T00:35:44;7.50;99.90
2999;DHT22;1509;51.964;7.628;2023-05-03T00:38:10;7.50;99.90
2999;DHT22;1509;51.964;7.628;2023-05-03T00:40:36;7.50;99.90
2999;DHT22;1509;51.964;7.628;2023-05-03T00:43:01;7.40;99.90
2999;DHT22;1509;51.964;7.628;2023-05-03T00:45:29;7.40;99.90
2999;DHT22;1509;51.964;7.628;2023-05-03T00:47:55;7.40;99.90
2999;DHT22;1509;51.964;7.628;2023-05-03T00:50:21;7.30;99.90
2999;DHT22;1509;51.964;7.628;2023-05-03T00:52:46;7.30;99.90
2999;DHT22;1509;51.964;7.628;2023-05-03T00:55:13;7.20;99.90
2999;DHT22;1509;51.964;7.628;2023-05-03T00:57:39;7.10;99.90
2999;DHT22;1509;51.964;7.628;2023-05-03T01:00:06;7.10;99.90
2999;DHT22;1509;51.964;7.628;2023-05-03T01:02:35;7.10;99.90
2999;DHT22;1509;51.964;7.628;2023-05-03T01:05:01;7.10;99.90
2999;DHT22;1509;51.964;7.628;2023-05-03T01:18:46;6.90;99.90
2999;DHT22;1509;51.964;7.628;2023-05-03T01:21:17;6.90;99.90
2999;DHT22;1509;51.964;7.628;2023-05-03T01:26:30;6.80;99.90
2999;DHT22;1509;51.964;7.628;2023-05-03T01:28:57;6.70;99.90
2999;DHT22;1509;51.964;7.628;2023-05-03T01:31:50;6.70;99.90
2999;DHT22;1509;51.964;7.628;2023-05-03T01:34:24;6.70;99.90
2999;DHT22;1509;51.964;7.628;2023-05-03T01:36:54;6.70;99.90
2999;DHT22;1509;51.964;7.628;2023-05-03T01:39:32;6.70;99.90
2999;DHT22;1509;51.964;7.628;2023-05-03T01:42:01;6.60;99.90
2999;DHT22;1509;51.964;7.628;2023-05-03T01:44:28;6.60;99.90
2999;DHT22;1509;51.964;7.628;2023-05-03T01:46:56;6.50;99.90
2999;DHT22;1509;51.964;7.628;2023-05-03T01:49:22;6.50;99.90
2999;DHT22;1509;51.964;7.628;2023-05-03T01:51:47;6.60;99.90
2999;DHT22;1509;51.964;7.628;2023-05-03T01:54:13;6.50;99.90
2999;DHT22;1509;51.964;7.628;2023-05-03T01:56:39;6.50;99.90
2999;DHT22;1509;51.964;7.628;2023-05-03T01:59:05;6.40;99.90
2999;DHT22;1509;51.964;7.628;2023-05-03T02:01:31;6.40;99.90
2999;DHT22;1509;51.964;7.628;2023-05-03T02:03:57;6.40;99.90
2999;DHT22;1509;51.964;7.628;2023-05-03T02:06:26;6.30;99.90
2999;DHT22;1509;51.964;7.628;2023-05-03T02:08:52;6.30;99.90
2999;DHT22;1509;51.964;7.628;2023-05-03T02:11:18;6.30;99.90
2999;DHT22;1509;51.964;7.628;2023-05-03T02:18:41;6.20;99.90
2999;DHT22;1509;51.964;7.628;2023-05-03T02:21:08;6.20;99.90
2999;DHT22;1509;51.964;7.628;2023-05-03T02:23:33;6.20;99.90
2999;DHT22;1509;51.964;7.628;2023-05-03T02:25:59;6.20;99.90
2999;DHT22;1509;51.964;7.628;2023-05-03T02:28:25;6.20;99.90
2999;DHT22;1509;51.964;7.628;2023-05-03T02:30:50;6.20;99.90
2999;DHT22;1509;51.964;7.628;2023-05-03T02:33:16;6.20;99.90
2999;DHT22;1509;51.964;7.628;2023-05-03T02:35:42;6.20;99.90
2999;DHT22;1509;51.964;7.628;2023-05-03T02:38:07;6.10;99.90
2999;DHT22;1509;51.964;7.628;2023-05-03T02:40:33;6.20;99.90
2999;DHT22;1509;51.964;7.628;2023-05-03T02:42:59;6.10;99.90
2999;DHT22;1509;51.964;7.628;2023-05-03T02:45:25;6.10;99.90
2999;DHT22;1509;51.964;7.628;2023-05-03T02:47:50;6.10;99.90
2999;DHT22;1509;51.964;7.628;2023-05-03T02:50:16;6.10;99.90
2999;DHT22;1509;51.964;7.628;2023-05-03T02:52:41;6.00;99.90
2999;DHT22;1509;51.964;7.628;2023-05-03T02:55:08;5.90;99.90
2999;DHT22;1509;51.964;7.628;2023-05-03T02:57:33;5.90;99.90
2999;DHT22;1509;51.964;7.628;2023-05-03T02:59:59;5.90;99.90
2999;DHT22;1509;51.964;7.628;2023-05-03T03:02:24;5.90;99.90
2999;DHT22;1509;51.964;7.628;2023-05-03T03:04:50;5.90;99.90
2999;DHT22;1509;51.964;7.628;2023-05-03T03:07:16;5.90;99.90
2999;DHT22;1509;51.964;7.628;2023-05-03T03:09:41;5.90;99.90
2999;DHT22;1509;51.964;7.628;2023-05-03T03:12:07;5.80;99.90
2999;DHT22;1509;51.964;7.628;2023-05-03T03:14:32;5.80;99.90
2999;DHT22;1509;51.964;7.628;2023-05-03T03:17:00;5.80;99.90
2999;DHT22;1509;51.964;7.628;2023-05-03T03:19:26;5.80;99.90
2999;DHT22;1509;51.964;7.628;2023-05-03T03:21:52;5.70;99.90
2999;DHT22;1509;51.964;7.628;2023-05-03T03:24:17;5.70;99.90
2999;DHT22;1509;51.964;7.628;2023-05-03T03:26:43;5.70;99.90
2999;DHT22;1509;51.964;7.628;2023-05-03T03:29:08;5.70;99.90
2999;DHT22;1509;51.964;7.628;2023-05-03T03:31:34;5.70;99.90
2999;DHT22;1509;51.964;7.628;2023-05-03T03:34:00;5.70;99.90
2999;DHT22;1509;51.964;7.628;2023-05-03T03:36:25;5.60;99.90
2999;DHT22;1509;51.964;7.628;2023-05-03T03:38:52;5.50;99.90
2999;DHT22;1509;51.964;7.628;2023-05-03T03:41:18;5.50;99.90
2999;DHT22;1509;51.964;7.628;2023-05-03T03:43:45;5.50;99.90
2999;DHT22;1509;51.964;7.628;2023-05-03T03:46:10;5.50;99.90
2999;DHT22;1509;51.964;7.628;2023-05-03T03:48:36;5.40;99.90
2999;DHT22;1509;51.964;7.628;2023-05-03T03:51:01;5.40;99.90
2999;DHT22;1509;51.964;7.628;2023-05-03T03:53:27;5.40;99.90
2999;DHT22;1509;51.964;7.628;2023-05-03T03:55:53;5.50;99.90
2999;DHT22;1509;51.964;7.628;2023-05-03T03:58:18;5.40;99.90
2999;DHT22;1509;51.964;7.628;2023-05-03T04:00:44;5.40;99.90
2999;DHT22;1509;51.964;7.628;2023-05-03T04:03:10;5.40;99.90
2999;DHT22;1509;51.964;7.628;2023-05-03T04:05:35;5.40;99.90
2999;DHT22;1509;51.964;7.628;2023-05-03T04:08:01;5.40;99.90
2999;DHT22;1509;51.964;7.628;2023-05-03T04:10:27;5.50;99.90
2999;DHT22;1509;51.964;7.628;2023-05-03T04:12:52;5.50;99.90
2999;DHT22;1509;51.964;7.628;2023-05-03T04:15:18;5.50;99.90
2999;DHT22;1509;51.964;7.628;2023-05-03T04:17:44;5.50;99.90
2999;DHT22;1509;51.964;7.628;2023-05-03T04:20:10;5.50;99.90
2999;DHT22;1509;51.964;7.628;2023-05-03T04:22:36;5.50;99.90
2999;DHT22;1509;51.964;7.628;2023-05-03T04:25:04;5.50;99.90
2999;DHT22;1509;51.964;7.628;2023-05-03T04:27:30;5.50;99.90
2999;DHT22;1509;51.964;7.628;2023-05-03T04:29:57;5.50;99.90
2999;DHT22;1509;51.964;7.628;2023-05-03T04:32:24;5.50;99.90
2999;DHT22;1509;51.964;7.628;2023-05-03T04:34:49;5.50;99.90
2999;DHT22;1509;51.964;7.628;2023-05-03T04:37:17;5.50;99.90
2999;DHT22;1509;51.964;7.628;2023-05-03T04:39:44;5.50;99.90
2999;DHT22;1509;51.964;7.628;2023-05-03T04:42:10;5.50;99.90
2999;DHT22;1509;51.964;7.628;2023-05-03T04:44:40;5.50;99.90
2999;DHT22;1509;51.964;7.628;2023-05-03T04:47:06;5.60;99.90
2999;DHT22;1509;51.964;7.628;2023-05-03T04:49:31;5.60;99.90
2999;DHT22;1509;51.964;7.628;2023-05-03T04:51:59;5.50;99.90
2999;DHT22;1509;51.964;7.628;2023-05-03T04:54:24;5.50;99.90
2999;DHT22;1509;51.964;7.628;2023-05-03T04:56:50;5.60;99.90
2999;DHT22;1509;51.964;7.628;2023-05-03T04:59:16;5.60;99.90
2999;DHT22;1509;51.964;7.628;2023-05-03T05:01:41;5.60;99.90
2999;DHT22;1509;51.964;7.628;2023-05-03T05:04:07;5.60;99.90
2999;DHT22;1509;51.964;7.628;2023-05-03T05:06:33;5.60;99.90
2999;DHT22;1509;51.964;7.628;2023-05-03T05:08:59;5.70;99.90
2999;DHT22;1509;51.964;7.628;2023-05-03T05:11:24;5.70;99.90
2999;DHT22;1509;51.964;7.628;2023-05-03T05:13:50;5.70;99.90
2999;DHT22;1509;51.964;7.628;2023-05-03T05:18:42;5.70;99.90
2999;DHT22;1509;51.964;7.628;2023-05-03T05:21:08;5.70;99.90
2999;DHT22;1509;51.964;7.628;2023-05-03T05:23:33;5.80;99.90
2999;DHT22;1509;51.964;7.628;2023-05-03T05:25:59;5.90;99.90
2999;DHT22;1509;51.964;7.628;2023-05-03T05:28:26;6.00;99.90
2999;DHT22;1509;51.964;7.628;2023-05-03T05:30:52;6.00;99.90
2999;DHT22;1509;51.964;7.628;2023-05-03T05:33:18;6.10;99.90
2999;DHT22;1509;51.964;7.628;2023-05-03T05:35:45;6.10;99.90
2999;DHT22;1509;51.964;7.628;2023-05-03T05:38:11;6.20;99.90
2999;DHT22;1509;51.964;7.628;2023-05-03T05:40:37;6.40;99.90
2999;DHT22;1509;51.964;7.628;2023-05-03T05:43:03;6.40;99.90
2999;DHT22;1509;51.964;7.628;2023-05-03T05:45:29;6.40;99.90
2999;DHT22;1509;51.964;7.628;2023-05-03T05:47:55;6.40;99.90
2999;DHT22;1509;51.964;7.628;2023-05-03T05:50:21;6.50;99.90
2999;DHT22;1509;51.964;7.628;2023-05-03T05:52:50;6.60;99.90
2999;DHT22;1509;51.964;7.628;2023-05-03T05:55:16;6.60;99.90
2999;DHT22;1509;51.964;7.628;2023-05-03T05:57:42;6.70;99.90
2999;DHT22;1509;51.964;7.628;2023-05-03T06:00:08;6.70;99.90
2999;DHT22;1509;51.964;7.628;2023-05-03T06:02:39;6.80;99.90
2999;DHT22;1509;51.964;7.628;2023-05-03T06:05:05;6.90;99.90
2999;DHT22;1509;51.964;7.628;2023-05-03T06:07:31;6.90;99.90
2999;DHT22;1509;51.964;7.628;2023-05-03T06:09:56;7.10;99.90
2999;DHT22;1509;51.964;7.628;2023-05-03T06:12:22;7.10;99.90
2999;DHT22;1509;51.964;7.628;2023-05-03T06:14:48;7.10;99.90
2999;DHT22;1509;51.964;7.628;2023-05-03T06:17:13;7.20;99.90
2999;DHT22;1509;51.964;7.628;2023-05-03T06:19:39;7.30;99.90
2999;DHT22;1509;51.964;7.628;2023-05-03T06:22:05;7.30;99.90
2999;DHT22;1509;51.964;7.628;2023-05-03T06:24:31;7.40;99.90
2999;DHT22;1509;51.964;7.628;2023-05-03T06:26:57;7.50;99.90
2999;DHT22;1509;51.964;7.628;2023-05-03T06:29:24;7.60;99.90
2999;DHT22;1509;51.964;7.628;2023-05-03T06:31:50;7.60;99.90
2999;DHT22;1509;51.964;7.628;2023-05-03T06:34:18;7.70;99.90
2999;DHT22;1509;51.964;7.628;2023-05-03T06:36:47;7.70;99.90
2999;DHT22;1509;51.964;7.628;2023-05-03T06:39:13;7.80;99.90
2999;DHT22;1509;51.964;7.628;2023-05-03T06:41:38;7.80;99.90
2999;DHT22;1509;51.964;7.628;2023-05-03T06:44:04;7.90;99.90
2999;DHT22;1509;51.964;7.628;2023-05-03T06:46:31;7.90;99.90
2999;DHT22;1509;51.964;7.628;2023-05-03T06:48:57;7.90;99.90
2999;DHT22;1509;51.964;7.628;2023-05-03T06:51:23;8.00;99.90
2999;DHT22;1509;51.964;7.628;2023-05-03T06:53:54;8.00;99.90
2999;DHT22;1509;51.964;7.628;2023-05-03T06:56:24;8.00;99.90
2999;DHT22;1509;51.964;7.628;2023-05-03T06:58:50;8.10;99.90
2999;DHT22;1509;51.964;7.628;2023-05-03T07:01:16;8.20;99.90
2999;DHT22;1509;51.964;7.628;2023-05-03T07:03:43;8.30;99.90
2999;DHT22;1509;51.964;7.628;2023-05-03T07:06:09;8.40;99.90
2999;DHT22;1509;51.964;7.628;2023-05-03T07:08:34;8.40;99.90
2999;DHT22;1509;51.964;7.628;2023-05-03T07:11:00;8.50;99.90
2999;DHT22;1509;51.964;7.628;2023-05-03T07:13:26;8.60;99.90
2999;DHT22;1509;51.964;7.628;2023-05-03T07:15:52;8.50;99.90
2999;DHT22;1509;51.964;7.628;2023-05-03T07:18:17;8.50;99.90
2999;DHT22;1509;51.964;7.628;2023-05-03T07:20:43;8.60;99.90
2999;DHT22;1509;51.964;7.628;2023-05-03T07:23:08;8.70;99.90
2999;DHT22;1509;51.964;7.628;2023-05-03T07:25:34;8.80;99.90
2999;DHT22;1509;51.964;7.628;2023-05-03T07:28:00;8.90;99.90
2999;DHT22;1509;51.964;7.628;2023-05-03T07:32:51;9.10;99.90
2999;DHT22;1509;51.964;7.628;2023-05-03T07:35:19;9.20;99.90
2999;DHT22;1509;51.964;7.628;2023-05-03T07:37:45;9.30;99.90
2999;DHT22;1509;51.964;7.628;2023-05-03T07:40:11;9.40;99.90
2999;DHT22;1509;51.964;7.628;2023-05-03T07:42:37;9.50;99.90
2999;DHT22;1509;51.964;7.628;2023-05-03T07:45:03;9.70;99.90
2999;DHT22;1509;51.964;7.628;2023-05-03T07:47:28;9.60;99.90
2999;DHT22;1509;51.964;7.628;2023-05-03T07:49:54;9.70;99.90
2999;DHT22;1509;51.964;7.628;2023-05-03T07:52:20;10.60;99.90
2999;DHT22;1509;51.964;7.628;2023-05-03T07:54:45;9.90;99.90
2999;DHT22;1509;51.964;7.628;2023-05-03T07:57:14;10.10;99.90
2999;DHT22;1509;51.964;7.628;2023-05-03T07:59:41;10.20;99.90
2999;DHT22;1509;51.964;7.628;2023-05-03T08:07:00;11.00;99.90
2999;DHT22;1509;51.964;7.628;2023-05-03T08:09:27;10.60;99.90
2999;DHT22;1509;51.964;7.628;2023-05-03T08:11:54;10.40;99.90
2999;DHT22;1509;51.964;7.628;2023-05-03T08:14:23;10.40;99.90
2999;DHT22;1509;51.964;7.628;2023-05-03T08:16:49;10.50;99.90
2999;DHT22;1509;51.964;7.628;2023-05-03T08:19:15;10.40;99.90
2999;DHT22;1509;51.964;7.628;2023-05-03T08:21:41;10.50;99.90
2999;DHT22;1509;51.964;7.628;2023-05-03T08:24:07;10.60;99.90
2999;DHT22;1509;51.964;7.628;2023-05-03T08:26:35;10.80;99.90
2999;DHT22;1509;51.964;7.628;2023-05-03T08:29:01;10.80;99.90
2999;DHT22;1509;51.964;7.628;2023-05-03T08:31:28;10.80;99.90
2999;DHT22;1509;51.964;7.628;2023-05-03T08:33:55;10.90;99.90
2999;DHT22;1509;51.964;7.628;2023-05-03T08:36:21;10.80;99.90
2999;DHT22;1509;51.964;7.628;2023-05-03T08:38:47;10.90;99.90
2999;DHT22;1509;51.964;7.628;2023-05-03T08:41:29;11.10;99.90
2999;DHT22;1509;51.964;7.628;2023-05-03T08:43:58;11.40;99.90
2999;DHT22;1509;51.964;7.628;2023-05-03T08:46:24;11.40;99.90
2999;DHT22;1509;51.964;7.628;2023-05-03T08:48:51;11.60;99.90
2999;DHT22;1509;51.964;7.628;2023-05-03T08:51:23;12.00;99.90
2999;DHT22;1509;51.964;7.628;2023-05-03T08:53:49;12.60;99.90
2999;DHT22;1509;51.964;7.628;2023-05-03T08:56:39;13.50;99.90
2999;DHT22;1509;51.964;7.628;2023-05-03T08:59:09;15.30;99.90
2999;DHT22;1509;51.964;7.628;2023-05-03T09:01:36;17.20;99.90
2999;DHT22;1509;51.964;7.628;2023-05-03T09:04:02;19.40;99.90
2999;DHT22;1509;51.964;7.628;2023-05-03T09:06:28;21.30;99.90
2999;DHT22;1509;51.964;7.628;2023-05-03T09:08:58;22.60;99.90
2999;DHT22;1509;51.964;7.628;2023-05-03T09:11:26;23.50;99.90
2999;DHT22;1509;51.964;7.628;2023-05-03T09:14:06;22.90;99.90
2999;DHT22;1509;51.964;7.628;2023-05-03T09:16:32;23.10;99.90
2999;DHT22;1509;51.964;7.628;2023-05-03T09:19:05;21.90;99.90
2999;DHT22;1509;51.964;7.628;2023-05-03T09:21:39;20.90;99.90
2999;DHT22;1509;51.964;7.628;2023-05-03T09:24:18;21.50;99.90
2999;DHT22;1509;51.964;7.628;2023-05-03T09:26:46;21.90;99.90
2999;DHT22;1509;51.964;7.628;2023-05-03T09:29:31;21.70;99.90
2999;DHT22;1509;51.964;7.628;2023-05-03T09:31:58;21.90;99.90
2999;DHT22;1509;51.964;7.628;2023-05-03T09:34:24;22.20;99.90
2999;DHT22;1509;51.964;7.628;2023-05-03T09:36:50;22.10;99.90
2999;DHT22;1509;51.964;7.628;2023-05-03T09:39:17;22.60;99.90
2999;DHT22;1509;51.964;7.628;2023-05-03T09:41:43;23.40;99.90
2999;DHT22;1509;51.964;7.628;2023-05-03T09:44:08;23.50;99.90
2999;DHT22;1509;51.964;7.628;2023-05-03T09:46:35;23.20;99.90
2999;DHT22;1509;51.964;7.628;2023-05-03T09:49:02;24.10;99.90
2999;DHT22;1509;51.964;7.628;2023-05-03T09:51:28;23.60;99.90
2999;DHT22;1509;51.964;7.628;2023-05-03T09:53:55;23.90;99.90
2999;DHT22;1509;51.964;7.628;2023-05-03T09:56:21;24.30;99.90
2999;DHT22;1509;51.964;7.628;2023-05-03T09:58:51;25.60;99.90
2999;DHT22;1509;51.964;7.628;2023-05-03T10:01:18;26.20;99.90
2999;DHT22;1509;51.964;7.628;2023-05-03T10:03:47;26.30;99.40
2999;DHT22;1509;51.964;7.628;2023-05-03T10:09:19;24.30;98.30
2999;DHT22;1509;51.964;7.628;2023-05-03T10:11:51;24.00;99.00
2999;DHT22;1509;51.964;7.628;2023-05-03T10:14:19;25.10;99.90
2999;DHT22;1509;51.964;7.628;2023-05-03T10:16:47;25.70;98.50
2999;DHT22;1509;51.964;7.628;2023-05-03T10:19:18;25.90;97.70
2999;DHT22;1509;51.964;7.628;2023-05-03T10:22:08;24.40;98.10
2999;DHT22;1509;51.964;7.628;2023-05-03T10:24:35;23.50;98.00
2999;DHT22;1509;51.964;7.628;2023-05-03T10:27:01;23.50;97.90
2999;DHT22;1509;51.964;7.628;2023-05-03T10:32:36;24.00;96.50
2999;DHT22;1509;51.964;7.628;2023-05-03T10:35:08;23.70;97.00
2999;DHT22;1509;51.964;7.628;2023-05-03T10:42:37;26.30;96.50
2999;DHT22;1509;51.964;7.628;2023-05-03T10:45:05;26.30;95.90
2999;DHT22;1509;51.964;7.628;2023-05-03T10:47:32;25.60;95.40
2999;DHT22;1509;51.964;7.628;2023-05-03T10:55:15;22.30;95.80
2999;DHT22;1509;51.964;7.628;2023-05-03T10:57:43;22.20;95.60
2999;DHT22;1509;51.964;7.628;2023-05-03T11:00:36;22.40;96.30
2999;DHT22;1509;51.964;7.628;2023-05-03T11:03:18;22.30;97.40
2999;DHT22;1509;51.964;7.628;2023-05-03T11:05:48;23.70;97.20
2999;DHT22;1509;51.964;7.628;2023-05-03T11:08:18;24.90;96.60
2999;DHT22;1509;51.964;7.628;2023-05-03T11:10:48;25.50;95.50
2999;DHT22;1509;51.964;7.628;2023-05-03T11:13:14;25.20;95.60
2999;DHT22;1509;51.964;7.628;2023-05-03T11:15:41;25.40;95.60
2999;DHT22;1509;51.964;7.628;2023-05-03T11:18:08;25.20;94.80
2999;DHT22;1509;51.964;7.628;2023-05-03T11:20:34;25.00;95.00
2999;DHT22;1509;51.964;7.628;2023-05-03T11:23:00;25.60;94.60
2999;DHT22;1509;51.964;7.628;2023-05-03T11:25:27;25.70;94.00
2999;DHT22;1509;51.964;7.628;2023-05-03T11:27:53;25.60;94.60
2999;DHT22;1509;51.964;7.628;2023-05-03T11:30:18;25.40;94.20
2999;DHT22;1509;51.964;7.628;2023-05-03T11:32:44;25.80;94.90
2999;DHT22;1509;51.964;7.628;2023-05-03T11:35:13;25.30;93.80
2999;DHT22;1509;51.964;7.628;2023-05-03T11:37:41;24.90;93.70
2999;DHT22;1509;51.964;7.628;2023-05-03T11:40:12;25.00;94.80
2999;DHT22;1509;51.964;7.628;2023-05-03T11:42:56;25.60;94.30
2999;DHT22;1509;51.964;7.628;2023-05-03T11:45:28;24.60;93.00
2999;DHT22;1509;51.964;7.628;2023-05-03T11:47:55;23.20;93.30
2999;DHT22;1509;51.964;7.628;2023-05-03T11:53:12;23.10;94.50
2999;DHT22;1509;51.964;7.628;2023-05-03T11:55:41;23.70;94.90
2999;DHT22;1509;51.964;7.628;2023-05-03T11:58:12;24.40;94.00
2999;DHT22;1509;51.964;7.628;2023-05-03T12:00:42;25.10;94.10
2999;DHT22;1509;51.964;7.628;2023-05-03T12:03:07;25.70;94.20
2999;DHT22;1509;51.964;7.628;2023-05-03T12:05:35;25.90;93.60
2999;DHT22;1509;51.964;7.628;2023-05-03T12:08:00;25.70;93.80
2999;DHT22;1509;51.964;7.628;2023-05-03T12:10:30;25.80;93.50
2999;DHT22;1509;51.964;7.628;2023-05-03T12:12:57;25.60;93.00
2999;DHT22;1509;51.964;7.628;2023-05-03T12:17:56;26.30;93.80
2999;DHT22;1509;51.964;7.628;2023-05-03T12:20:23;26.10;93.60
2999;DHT22;1509;51.964;7.628;2023-05-03T12:22:55;26.50;93.10
2999;DHT22;1509;51.964;7.628;2023-05-03T12:25:21;26.50;93.00
2999;DHT22;1509;51.964;7.628;2023-05-03T12:27:47;26.50;92.90
2999;DHT22;1509;51.964;7.628;2023-05-03T12:30:13;26.60;92.60
2999;DHT22;1509;51.964;7.628;2023-05-03T12:32:40;25.90;92.20
2999;DHT22;1509;51.964;7.628;2023-05-03T12:35:08;25.30;92.80
2999;DHT22;1509;51.964;7.628;2023-05-03T12:37:34;24.80;93.10
2999;DHT22;1509;51.964;7.628;2023-05-03T12:40:01;24.30;93.20
2999;DHT22;1509;51.964;7.628;2023-05-03T12:42:27;24.30;93.30
2999;DHT22;1509;51.964;7.628;2023-05-03T12:44:56;24.00;93.40
2999;DHT22;1509;51.964;7.628;2023-05-03T12:47:22;23.40;94.00
2999;DHT22;1509;51.964;7.628;2023-05-03T12:49:48;23.60;94.10
2999;DHT22;1509;51.964;7.628;2023-05-03T12:52:13;23.90;93.90
2999;DHT22;1509;51.964;7.628;2023-05-03T12:54:39;24.30;94.50
2999;DHT22;1509;51.964;7.628;2023-05-03T12:57:06;24.90;94.20
2999;DHT22;1509;51.964;7.628;2023-05-03T12:59:32;25.40;94.10
2999;DHT22;1509;51.964;7.628;2023-05-03T13:01:57;25.40;93.60
2999;DHT22;1509;51.964;7.628;2023-05-03T13:04:23;25.40;94.00
2999;DHT22;1509;51.964;7.628;2023-05-03T13:06:49;25.20;93.40
2999;DHT22;1509;51.964;7.628;2023-05-03T13:09:15;24.90;93.10
2999;DHT22;1509;51.964;7.628;2023-05-03T13:11:41;25.20;93.20
2999;DHT22;1509;51.964;7.628;2023-05-03T13:14:07;25.30;93.30
2999;DHT22;1509;51.964;7.628;2023-05-03T13:16:32;25.00;93.70
2999;DHT22;1509;51.964;7.628;2023-05-03T13:19:00;25.00;93.70
2999;DHT22;1509;51.964;7.628;2023-05-03T13:21:26;25.40;93.50
2999;DHT22;1509;51.964;7.628;2023-05-03T13:23:52;25.00;94.00
2999;DHT22;1509;51.964;7.628;2023-05-03T13:26:18;25.10;94.20
2999;DHT22;1509;51.964;7.628;2023-05-03T13:28:43;24.70;94.00
2999;DHT22;1509;51.964;7.628;2023-05-03T13:31:10;24.20;93.60
2999;DHT22;1509;51.964;7.628;2023-05-03T13:33:36;24.10;94.60
2999;DHT22;1509;51.964;7.628;2023-05-03T13:36:03;23.80;93.80
2999;DHT22;1509;51.964;7.628;2023-05-03T13:38:29;23.20;94.50
2999;DHT22;1509;51.964;7.628;2023-05-03T13:43:20;22.10;93.90
2999;DHT22;1509;51.964;7.628;2023-05-03T13:45:46;22.10;94.50
2999;DHT22;1509;51.964;7.628;2023-05-03T13:48:12;22.10;94.90
2999;DHT22;1509;51.964;7.628;2023-05-03T13:50:37;21.70;94.40
2999;DHT22;1509;51.964;7.628;2023-05-03T13:53:03;21.40;94.20
2999;DHT22;1509;51.964;7.628;2023-05-03T13:55:28;20.10;93.90
2999;DHT22;1509;51.964;7.628;2023-05-03T13:57:54;19.80;94.90
2999;DHT22;1509;51.964;7.628;2023-05-03T14:00:20;19.80;95.10
2999;DHT22;1509;51.964;7.628;2023-05-03T14:02:46;19.80;95.10
2999;DHT22;1509;51.964;7.628;2023-05-03T14:05:15;19.60;94.90
2999;DHT22;1509;51.964;7.628;2023-05-03T14:07:40;19.50;95.20
2999;DHT22;1509;51.964;7.628;2023-05-03T14:10:06;19.40;95.60
2999;DHT22;1509;51.964;7.628;2023-05-03T14:12:33;19.30;95.30
2999;DHT22;1509;51.964;7.628;2023-05-03T14:15:04;19.20;95.60
2999;DHT22;1509;51.964;7.628;2023-05-03T14:17:29;19.40;96.10
2999;DHT22;1509;51.964;7.628;2023-05-03T14:19:57;19.40;95.80
2999;DHT22;1509;51.964;7.628;2023-05-03T14:22:23;19.40;96.50
2999;DHT22;1509;51.964;7.628;2023-05-03T14:24:49;19.40;96.50
2999;DHT22;1509;51.964;7.628;2023-05-03T14:27:15;19.10;96.20
2999;DHT22;1509;51.964;7.628;2023-05-03T14:29:45;18.80;95.80
2999;DHT22;1509;51.964;7.628;2023-05-03T14:32:11;18.70;97.10
2999;DHT22;1509;51.964;7.628;2023-05-03T14:34:37;18.90;97.20
2999;DHT22;1509;51.964;7.628;2023-05-03T14:37:03;19.10;97.10
2999;DHT22;1509;51.964;7.628;2023-05-03T14:39:28;19.10;96.80
2999;DHT22;1509;51.964;7.628;2023-05-03T14:41:54;18.90;96.70
2999;DHT22;1509;51.964;7.628;2023-05-03T14:44:20;18.90;96.80
2999;DHT22;1509;51.964;7.628;2023-05-03T14:46:46;18.90;97.70
2999;DHT22;1509;51.964;7.628;2023-05-03T14:49:15;19.00;97.00
2999;DHT22;1509;51.964;7.628;2023-05-03T14:51:42;18.80;97.00
2999;DHT22;1509;51.964;7.628;2023-05-03T14:54:07;18.80;97.60
2999;DHT22;1509;51.964;7.628;2023-05-03T14:56:33;18.90;97.80
2999;DHT22;1509;51.964;7.628;2023-05-03T14:58:59;18.90;97.80
2999;DHT22;1509;51.964;7.628;2023-05-03T15:01:28;18.90;97.50
2999;DHT22;1509;51.964;7.628;2023-05-03T15:03:54;18.80;97.50
2999;DHT22;1509;51.964;7.628;2023-05-03T15:06:27;18.60;97.40
2999;DHT22;1509;51.964;7.628;2023-05-03T15:08:55;18.60;97.80
2999;DHT22;1509;51.964;7.628;2023-05-03T15:11:22;18.60;96.70
2999;DHT22;1509;51.964;7.628;2023-05-03T15:13:48;18.50;97.30
2999;DHT22;1509;51.964;7.628;2023-05-03T15:16:14;18.30;97.40
2999;DHT22;1509;51.964;7.628;2023-05-03T15:18:40;18.20;97.30
2999;DHT22;1509;51.964;7.628;2023-05-03T15:21:08;18.00;97.40
2999;DHT22;1509;51.964;7.628;2023-05-03T15:23:33;18.10;97.80
2999;DHT22;1509;51.964;7.628;2023-05-03T15:26:02;18.20;97.90
2999;DHT22;1509;51.964;7.628;2023-05-03T15:28:27;18.10;97.80
2999;DHT22;1509;51.964;7.628;2023-05-03T15:30:53;17.90;97.30
2999;DHT22;1509;51.964;7.628;2023-05-03T15:33:18;17.90;97.50
2999;DHT22;1509;51.964;7.628;2023-05-03T15:35:44;18.00;98.00
2999;DHT22;1509;51.964;7.628;2023-05-03T15:38:10;17.80;98.30
2999;DHT22;1509;51.964;7.628;2023-05-03T15:40:36;17.80;98.40
2999;DHT22;1509;51.964;7.628;2023-05-03T15:43:02;17.90;98.20
2999;DHT22;1509;51.964;7.628;2023-05-03T15:45:27;17.90;98.30
2999;DHT22;1509;51.964;7.628;2023-05-03T15:47:54;18.00;98.40
2999;DHT22;1509;51.964;7.628;2023-05-03T15:50:22;17.80;97.60
2999;DHT22;1509;51.964;7.628;2023-05-03T15:52:48;17.70;98.10
2999;DHT22;1509;51.964;7.628;2023-05-03T15:55:14;17.80;98.50
2999;DHT22;1509;51.964;7.628;2023-05-03T15:57:42;17.90;97.60
2999;DHT22;1509;51.964;7.628;2023-05-03T16:00:10;17.80;97.50
2999;DHT22;1509;51.964;7.628;2023-05-03T16:02:40;17.70;97.40
2999;DHT22;1509;51.964;7.628;2023-05-03T16:05:06;17.70;97.40
2999;DHT22;1509;51.964;7.628;2023-05-03T16:07:32;17.70;97.10
2999;DHT22;1509;51.964;7.628;2023-05-03T16:09:58;17.60;97.00
2999;DHT22;1509;51.964;7.628;2023-05-03T16:12:23;17.60;97.30
2999;DHT22;1509;51.964;7.628;2023-05-03T16:14:49;17.70;97.00
2999;DHT22;1509;51.964;7.628;2023-05-03T16:17:15;17.70;96.70
2999;DHT22;1509;51.964;7.628;2023-05-03T16:19:41;17.70;97.10
2999;DHT22;1509;51.964;7.628;2023-05-03T16:22:08;17.70;97.30
2999;DHT22;1509;51.964;7.628;2023-05-03T16:24:34;17.60;97.70
2999;DHT22;1509;51.964;7.628;2023-05-03T16:27:01;17.60;96.70
2999;DHT22;1509;51.964;7.628;2023-05-03T16:29:28;17.30;96.80
2999;DHT22;1509;51.964;7.628;2023-05-03T16:31:54;17.10;97.00
2999;DHT22;1509;51.964;7.628;2023-05-03T16:34:20;17.10;97.30
2999;DHT22;1509;51.964;7.628;2023-05-03T16:36:46;17.30;98.70
2999;DHT22;1509;51.964;7.628;2023-05-03T16:39:13;17.40;97.90
2999;DHT22;1509;51.964;7.628;2023-05-03T16:41:39;17.50;98.40
2999;DHT22;1509;51.964;7.628;2023-05-03T16:44:05;17.60;98.10
2999;DHT22;1509;51.964;7.628;2023-05-03T16:46:35;17.60;97.60
2999;DHT22;1509;51.964;7.628;2023-05-03T16:49:01;17.70;97.70
2999;DHT22;1509;51.964;7.628;2023-05-03T16:51:27;17.70;97.90
2999;DHT22;1509;51.964;7.628;2023-05-03T16:53:53;17.60;97.10
2999;DHT22;1509;51.964;7.628;2023-05-03T16:56:19;17.50;97.50
2999;DHT22;1509;51.964;7.628;2023-05-03T16:58:46;17.40;97.70
2999;DHT22;1509;51.964;7.628;2023-05-03T17:01:12;17.50;97.30